sensor_id;sensor_type;location;lat;lon;timestamp;pressure;altitude;pressure_sealevel;temperature;humidity
79586;BME280;69054;50.866;4.636;2023-11-19T00:00:19;100631.22;;;12.32;100.00
79586;BME280;69054;50.866;4.636;2023-11-19T00:02:44;100628.06;;;12.28;100.00
79586;BME280;69054;50.866;4.636;2023-11-19T00:05:10;100615.41;;;12.27;100.00
79586;BME280;69054;50.866;4.636;2023-11-19T00:07:37;100624.47;;;12.21;100.00
79586;BME280;69054;50.866;4.636;2023-11-19T00:10:15;100623.00;;;12.25;100.00
79586;BME280;69054;50.866;4.636;2023-11-19T00:12:45;100624.28;;;12.22;100.00
79586;BME280;69054;50.866;4.636;2023-11-19T00:15:12;100633.13;;;12.18;100.00
79586;BME280;69054;50.866;4.636;2023-11-19T00:17:41;100621.09;;;12.25;100.00
79586;BME280;69054;50.866;4.636;2023-11-19T00:20:14;100610.16;;;12.25;100.00
79586;BME280;69054;50.866;4.636;2023-11-19T00:22:39;100602.56;;;12.28;100.00
79586;BME280;69054;50.866;4.636;2023-11-19T00:25:06;100604.47;;;12.20;100.00
79586;BME280;69054;50.866;4.636;2023-11-19T00:27:31;100601.53;;;12.22;100.00
79586;BME280;69054;50.866;4.636;2023-11-19T00:29:56;100621.31;;;12.31;100.00
79586;BME280;69054;50.866;4.636;2023-11-19T00:32:23;100605.72;;;12.38;100.00
79586;BME280;69054;50.866;4.636;2023-11-19T00:34:48;100609.28;;;12.32;100.00
79586;BME280;69054;50.866;4.636;2023-11-19T00:37:14;100611.00;;;12.33;100.00
79586;BME280;69054;50.866;4.636;2023-11-19T00:39:41;100603.00;;;12.31;100.00
79586;BME280;69054;50.866;4.636;2023-11-19T00:42:06;100598.97;;;12.34;100.00
79586;BME280;69054;50.866;4.636;2023-11-19T00:44:31;100594.34;;;12.34;100.00
79586;BME280;69054;50.866;4.636;2023-11-19T00:46:57;100593.91;;;12.37;100.00
79586;BME280;69054;50.866;4.636;2023-11-19T00:49:22;100602.97;;;12.38;100.00
79586;BME280;69054;50.866;4.636;2023-11-19T00:51:48;100593.06;;;12.37;100.00
79586;BME280;69054;50.866;4.636;2023-11-19T00:54:14;100590.13;;;12.32;100.00
79586;BME280;69054;50.866;4.636;2023-11-19T00:56:39;100579.16;;;12.32;100.00
79586;BME280;69054;50.866;4.636;2023-11-19T00:59:05;100584.84;;;12.30;100.00
79586;BME280;69054;50.866;4.636;2023-11-19T01:01:30;100581.72;;;12.27;100.00
79586;BME280;69054;50.866;4.636;2023-11-19T01:03:56;100588.84;;;12.28;100.00
79586;BME280;69054;50.866;4.636;2023-11-19T01:06:32;100586.31;;;12.26;100.00
79586;BME280;69054;50.866;4.636;2023-11-19T01:08:57;100583.38;;;12.28;100.00
79586;BME280;69054;50.866;4.636;2023-11-19T01:11:24;100579.38;;;12.30;100.00
79586;BME280;69054;50.866;4.636;2023-11-19T01:13:50;100577.06;;;12.27;100.00
79586;BME280;69054;50.866;4.636;2023-11-19T01:16:15;100585.25;;;12.34;100.00
79586;BME280;69054;50.866;4.636;2023-11-19T01:18:41;100575.38;;;12.33;100.00
79586;BME280;69054;50.866;4.636;2023-11-19T01:21:06;100582.94;;;12.31;100.00
79586;BME280;69054;50.866;4.636;2023-11-19T01:23:32;100590.13;;;12.32;100.00
79586;BME280;69054;50.866;4.636;2023-11-19T01:25:58;100576.84;;;12.29;100.00
79586;BME280;69054;50.866;4.636;2023-11-19T01:28:23;100580.84;;;12.39;100.00
79586;BME280;69054;50.866;4.636;2023-11-19T01:30:52;100579.56;;;12.42;100.00
79586;BME280;69054;50.866;4.636;2023-11-19T01:33:20;100572.44;;;12.34;100.00
79586;BME280;69054;50.866;4.636;2023-11-19T01:35:46;100574.97;;;12.22;100.00
79586;BME280;69054;50.866;4.636;2023-11-19T01:38:12;100562.13;;;12.16;100.00
79586;BME280;69054;50.866;4.636;2023-11-19T01:40:37;100576.00;;;12.21;100.00
79586;BME280;69054;50.866;4.636;2023-11-19T01:43:03;100574.56;;;12.19;100.00
79586;BME280;69054;50.866;4.636;2023-11-19T01:45:30;100571.81;;;12.19;100.00
79586;BME280;69054;50.866;4.636;2023-11-19T01:47:56;100572.03;;;12.17;100.00
79586;BME280;69054;50.866;4.636;2023-11-19T01:50:23;100566.53;;;12.24;100.00
79586;BME280;69054;50.866;4.636;2023-11-19T01:52:52;100564.63;;;12.11;100.00
79586;BME280;69054;50.866;4.636;2023-11-19T01:55:19;100575.59;;;12.04;100.00
79586;BME280;69054;50.866;4.636;2023-11-19T01:57:45;100574.94;;;11.96;100.00
79586;BME280;69054;50.866;4.636;2023-11-19T02:00:11;100588.41;;;11.90;100.00
79586;BME280;69054;50.866;4.636;2023-11-19T02:02:39;100577.91;;;12.01;100.00
79586;BME280;69054;50.866;4.636;2023-11-19T02:05:05;100578.34;;;11.98;100.00
79586;BME280;69054;50.866;4.636;2023-11-19T02:07:31;100577.91;;;11.94;100.00
79586;BME280;69054;50.866;4.636;2023-11-19T02:09:57;100585.66;;;11.77;100.00
79586;BME280;69054;50.866;4.636;2023-11-19T02:12:25;100570.28;;;11.76;100.00
79586;BME280;69054;50.866;4.636;2023-11-19T02:14:53;100577.84;;;11.81;100.00
79586;BME280;69054;50.866;4.636;2023-11-19T02:17:28;100560.59;;;11.74;100.00
79586;BME280;69054;50.866;4.636;2023-11-19T02:19:56;100560.78;;;11.65;100.00
79586;BME280;69054;50.866;4.636;2023-11-19T02:22:22;100570.69;;;11.66;100.00
79586;BME280;69054;50.866;4.636;2023-11-19T02:24:49;100563.50;;;11.52;100.00
79586;BME280;69054;50.866;4.636;2023-11-19T02:30:02;100560.97;;;11.44;100.00
79586;BME280;69054;50.866;4.636;2023-11-19T02:32:33;100563.91;;;11.42;100.00
79586;BME280;69054;50.866;4.636;2023-11-19T02:34:59;100563.69;;;11.37;100.00
79586;BME280;69054;50.866;4.636;2023-11-19T02:37:24;100561.16;;;11.35;100.00
79586;BME280;69054;50.866;4.636;2023-11-19T02:39:50;100570.78;;;11.25;100.00
79586;BME280;69054;50.866;4.636;2023-11-19T02:42:16;100589.31;;;11.23;100.00
79586;BME280;69054;50.866;4.636;2023-11-19T02:44:44;100578.16;;;11.24;100.00
79586;BME280;69054;50.866;4.636;2023-11-19T02:47:11;100579.88;;;11.32;100.00
79586;BME280;69054;50.866;4.636;2023-11-19T02:49:36;100573.34;;;11.33;100.00
79586;BME280;69054;50.866;4.636;2023-11-19T02:52:03;100571.84;;;11.24;100.00
79586;BME280;69054;50.866;4.636;2023-11-19T02:54:30;100574.81;;;11.29;100.00
79586;BME280;69054;50.866;4.636;2023-11-19T02:57:00;100565.78;;;11.35;100.00
79586;BME280;69054;50.866;4.636;2023-11-19T02:59:27;100557.81;;;11.47;100.00
79586;BME280;69054;50.866;4.636;2023-11-19T03:01:53;100560.13;;;11.57;100.00
79586;BME280;69054;50.866;4.636;2023-11-19T03:04:19;100567.31;;;11.58;100.00
79586;BME280;69054;50.866;4.636;2023-11-19T03:06:48;100555.94;;;11.61;100.00
79586;BME280;69054;50.866;4.636;2023-11-19T03:09:14;100548.34;;;11.56;100.00
79586;BME280;69054;50.866;4.636;2023-11-19T03:11:39;100550.88;;;11.51;100.00
79586;BME280;69054;50.866;4.636;2023-11-19T03:14:04;100557.19;;;11.51;100.00
79586;BME280;69054;50.866;4.636;2023-11-19T03:16:30;100546.44;;;11.57;100.00
79586;BME280;69054;50.866;4.636;2023-11-19T03:18:55;100537.00;;;11.52;100.00
79586;BME280;69054;50.866;4.636;2023-11-19T03:21:30;100530.03;;;11.43;100.00
79586;BME280;69054;50.866;4.636;2023-11-19T03:23:59;100520.75;;;11.38;100.00
79586;BME280;69054;50.866;4.636;2023-11-19T03:26:26;100526.84;;;11.40;100.00
79586;BME280;69054;50.866;4.636;2023-11-19T03:28:53;100533.16;;;11.33;100.00
79586;BME280;69054;50.866;4.636;2023-11-19T03:31:18;100538.63;;;11.27;100.00
79586;BME280;69054;50.866;4.636;2023-11-19T03:33:44;100539.44;;;11.21;100.00
79586;BME280;69054;50.866;4.636;2023-11-19T03:36:10;100540.91;;;11.23;100.00
79586;BME280;69054;50.866;4.636;2023-11-19T03:38:36;100553.28;;;11.12;100.00
79586;BME280;69054;50.866;4.636;2023-11-19T03:41:10;100545.69;;;11.08;100.00
79586;BME280;69054;50.866;4.636;2023-11-19T03:43:35;100540.22;;;11.08;100.00
79586;BME280;69054;50.866;4.636;2023-11-19T03:46:01;100547.00;;;11.12;100.00
79586;BME280;69054;50.866;4.636;2023-11-19T03:48:26;100557.50;;;11.08;100.00
79586;BME280;69054;50.866;4.636;2023-11-19T03:50:51;100548.03;;;11.11;100.00
79586;BME280;69054;50.866;4.636;2023-11-19T03:53:17;100551.78;;;11.03;100.00
79586;BME280;69054;50.866;4.636;2023-11-19T03:55:43;100559.97;;;10.96;100.00
79586;BME280;69054;50.866;4.636;2023-11-19T03:58:09;100559.53;;;10.93;100.00
79586;BME280;69054;50.866;4.636;2023-11-19T04:00:34;100566.63;;;10.80;100.00
79586;BME280;69054;50.866;4.636;2023-11-19T04:03:00;100573.28;;;10.71;100.00
79586;BME280;69054;50.866;4.636;2023-11-19T04:05:25;100581.63;;;10.56;100.00
79586;BME280;69054;50.866;4.636;2023-11-19T04:07:51;100580.53;;;10.51;100.00
79586;BME280;69054;50.866;4.636;2023-11-19T04:10:16;100574.53;;;10.69;100.00
79586;BME280;69054;50.866;4.636;2023-11-19T04:12:42;100579.25;;;10.81;100.00
79586;BME280;69054;50.866;4.636;2023-11-19T04:15:08;100583.41;;;10.77;100.00
79586;BME280;69054;50.866;4.636;2023-11-19T04:17:34;100573.31;;;10.78;100.00
79586;BME280;69054;50.866;4.636;2023-11-19T04:19:59;100571.69;;;10.83;100.00
79586;BME280;69054;50.866;4.636;2023-11-19T04:22:25;100586.16;;;10.77;100.00
79586;BME280;69054;50.866;4.636;2023-11-19T04:24:51;100588.47;;;10.80;100.00
79586;BME280;69054;50.866;4.636;2023-11-19T04:27:16;100597.25;;;10.69;100.00
79586;BME280;69054;50.866;4.636;2023-11-19T04:29:42;100588.41;;;10.67;100.00
79586;BME280;69054;50.866;4.636;2023-11-19T04:32:07;100582.72;;;10.69;100.00
79586;BME280;69054;50.866;4.636;2023-11-19T04:34:33;100585.25;;;10.70;100.00
79586;BME280;69054;50.866;4.636;2023-11-19T04:36:58;100579.88;;;10.83;100.00
79586;BME280;69054;50.866;4.636;2023-11-19T04:39:27;100589.78;;;10.85;100.00
79586;BME280;69054;50.866;4.636;2023-11-19T04:41:52;100597.09;;;10.77;100.00
79586;BME280;69054;50.866;4.636;2023-11-19T04:44:18;100590.59;;;10.78;100.00
79586;BME280;69054;50.866;4.636;2023-11-19T04:46:44;100598.50;;;10.67;100.00
79586;BME280;69054;50.866;4.636;2023-11-19T04:49:10;100610.13;;;10.75;100.00
79586;BME280;69054;50.866;4.636;2023-11-19T04:51:42;100606.69;;;10.67;100.00
79586;BME280;69054;50.866;4.636;2023-11-19T04:54:09;100613.66;;;10.69;100.00
79586;BME280;69054;50.866;4.636;2023-11-19T04:56:38;100615.41;;;10.83;100.00
79586;BME280;69054;50.866;4.636;2023-11-19T04:59:04;100616.28;;;10.84;100.00
79586;BME280;69054;50.866;4.636;2023-11-19T05:01:33;100605.06;;;10.72;100.00
79586;BME280;69054;50.866;4.636;2023-11-19T05:03:58;100612.19;;;10.73;100.00
79586;BME280;69054;50.866;4.636;2023-11-19T05:06:31;100607.13;;;10.70;100.00
79586;BME280;69054;50.866;4.636;2023-11-19T05:09:00;100608.59;;;10.66;100.00
79586;BME280;69054;50.866;4.636;2023-11-19T05:11:35;100603.75;;;10.68;100.00
79586;BME280;69054;50.866;4.636;2023-11-19T05:14:02;100615.09;;;10.65;100.00
79586;BME280;69054;50.866;4.636;2023-11-19T05:16:29;100629.44;;;10.74;100.00
79586;BME280;69054;50.866;4.636;2023-11-19T05:18:54;100606.56;;;10.81;100.00
79586;BME280;69054;50.866;4.636;2023-11-19T05:21:20;100603.59;;;10.76;100.00
79586;BME280;69054;50.866;4.636;2023-11-19T05:23:45;100606.91;;;10.65;100.00
79586;BME280;69054;50.866;4.636;2023-11-19T05:26:22;100601.59;;;10.57;100.00
79586;BME280;69054;50.866;4.636;2023-11-19T05:28:48;100602.63;;;10.56;100.00
79586;BME280;69054;50.866;4.636;2023-11-19T05:31:13;100609.13;;;10.55;100.00
79586;BME280;69054;50.866;4.636;2023-11-19T05:33:39;100603.63;;;10.48;100.00
79586;BME280;69054;50.866;4.636;2023-11-19T05:36:05;100609.44;;;10.38;100.00
79586;BME280;69054;50.866;4.636;2023-11-19T05:38:30;100608.72;;;10.29;100.00
79586;BME280;69054;50.866;4.636;2023-11-19T05:40:56;100615.81;;;10.24;100.00
79586;BME280;69054;50.866;4.636;2023-11-19T05:43:21;100593.56;;;10.27;100.00
79586;BME280;69054;50.866;4.636;2023-11-19T05:45:47;100610.19;;;10.32;100.00
79586;BME280;69054;50.866;4.636;2023-11-19T05:48:12;100610.91;;;10.34;100.00
79586;BME280;69054;50.866;4.636;2023-11-19T05:50:38;100625.22;;;10.43;100.00
79586;BME280;69054;50.866;4.636;2023-11-19T05:53:04;100628.56;;;10.38;100.00
79586;BME280;69054;50.866;4.636;2023-11-19T05:55:36;100630.66;;;10.36;100.00
79586;BME280;69054;50.866;4.636;2023-11-19T05:58:03;100635.91;;;10.38;100.00
79586;BME280;69054;50.866;4.636;2023-11-19T06:00:29;100638.78;;;10.58;100.00
79586;BME280;69054;50.866;4.636;2023-11-19T06:02:55;100624.94;;;10.59;100.00
79586;BME280;69054;50.866;4.636;2023-11-19T06:05:21;100608.72;;;10.51;100.00
79586;BME280;69054;50.866;4.636;2023-11-19T06:07:46;100615.09;;;10.37;100.00
79586;BME280;69054;50.866;4.636;2023-11-19T06:10:12;100615.56;;;10.40;100.00
79586;BME280;69054;50.866;4.636;2023-11-19T06:12:41;100615.88;;;10.30;100.00
79586;BME280;69054;50.866;4.636;2023-11-19T06:15:07;100632.59;;;10.21;100.00
79586;BME280;69054;50.866;4.636;2023-11-19T06:17:36;100639.63;;;10.08;100.00
79586;BME280;69054;50.866;4.636;2023-11-19T06:20:01;100634.19;;;10.08;100.00
79586;BME280;69054;50.866;4.636;2023-11-19T06:22:29;100626.06;;;10.22;100.00
79586;BME280;69054;50.866;4.636;2023-11-19T06:24:54;100631.50;;;10.15;100.00
79586;BME280;69054;50.866;4.636;2023-11-19T06:27:21;100634.56;;;10.05;100.00
79586;BME280;69054;50.866;4.636;2023-11-19T06:29:47;100636.78;;;9.95;100.00
79586;BME280;69054;50.866;4.636;2023-11-19T06:32:13;100635.31;;;9.99;100.00
79586;BME280;69054;50.866;4.636;2023-11-19T06:34:38;100632.59;;;9.99;100.00
79586;BME280;69054;50.866;4.636;2023-11-19T06:37:04;100638.44;;;9.96;100.00
79586;BME280;69054;50.866;4.636;2023-11-19T06:39:29;100644.97;;;9.95;100.00
79586;BME280;69054;50.866;4.636;2023-11-19T06:41:55;100629.63;;;9.94;100.00
79586;BME280;69054;50.866;4.636;2023-11-19T06:44:20;100635.81;;;10.03;100.00
79586;BME280;69054;50.866;4.636;2023-11-19T06:46:45;100637.88;;;10.01;100.00
79586;BME280;69054;50.866;4.636;2023-11-19T06:49:11;100639.56;;;10.02;100.00
79586;BME280;69054;50.866;4.636;2023-11-19T06:51:41;100642.03;;;9.97;100.00
79586;BME280;69054;50.866;4.636;2023-11-19T06:54:06;100641.13;;;9.89;100.00
79586;BME280;69054;50.866;4.636;2023-11-19T06:56:32;100639.91;;;9.92;100.00
79586;BME280;69054;50.866;4.636;2023-11-19T06:58:57;100638.97;;;9.85;100.00
79586;BME280;69054;50.866;4.636;2023-11-19T07:01:23;100651.91;;;9.76;100.00
79586;BME280;69054;50.866;4.636;2023-11-19T07:03:49;100649.75;;;9.71;100.00
79586;BME280;69054;50.866;4.636;2023-11-19T07:06:14;100652.63;;;9.63;100.00
79586;BME280;69054;50.866;4.636;2023-11-19T07:08:43;100642.69;;;9.77;100.00
79586;BME280;69054;50.866;4.636;2023-11-19T07:11:12;100648.59;;;9.81;100.00
79586;BME280;69054;50.866;4.636;2023-11-19T07:13:39;100659.97;;;9.84;100.00
79586;BME280;69054;50.866;4.636;2023-11-19T07:16:07;100659.41;;;9.89;100.00
79586;BME280;69054;50.866;4.636;2023-11-19T07:18:35;100662.53;;;9.86;100.00
79586;BME280;69054;50.866;4.636;2023-11-19T07:21:00;100676.81;;;9.88;100.00
79586;BME280;69054;50.866;4.636;2023-11-19T07:23:26;100665.88;;;9.88;100.00
79586;BME280;69054;50.866;4.636;2023-11-19T07:25:51;100659.25;;;9.97;100.00
79586;BME280;69054;50.866;4.636;2023-11-19T07:28:18;100658.75;;;10.08;100.00
79586;BME280;69054;50.866;4.636;2023-11-19T07:30:44;100660.22;;;10.11;100.00
79586;BME280;69054;50.866;4.636;2023-11-19T07:33:09;100667.81;;;10.16;100.00
79586;BME280;69054;50.866;4.636;2023-11-19T07:35:35;100664.69;;;10.19;100.00
79586;BME280;69054;50.866;4.636;2023-11-19T07:38:00;100664.66;;;10.34;100.00
79586;BME280;69054;50.866;4.636;2023-11-19T07:40:25;100669.53;;;10.38;100.00
79586;BME280;69054;50.866;4.636;2023-11-19T07:42:51;100672.19;;;10.32;100.00
79586;BME280;69054;50.866;4.636;2023-11-19T07:45:17;100667.38;;;10.34;100.00
79586;BME280;69054;50.866;4.636;2023-11-19T07:47:43;100662.41;;;10.37;100.00
79586;BME280;69054;50.866;4.636;2023-11-19T07:50:10;100664.72;;;10.40;100.00
79586;BME280;69054;50.866;4.636;2023-11-19T07:52:37;100662.25;;;10.45;100.00
79586;BME280;69054;50.866;4.636;2023-11-19T07:55:02;100665.16;;;10.44;100.00
79586;BME280;69054;50.866;4.636;2023-11-19T07:57:28;100667.94;;;10.51;100.00
79586;BME280;69054;50.866;4.636;2023-11-19T07:59:59;100668.34;;;10.47;100.00
79586;BME280;69054;50.866;4.636;2023-11-19T08:02:26;100674.28;;;10.51;100.00
79586;BME280;69054;50.866;4.636;2023-11-19T08:04:51;100674.50;;;10.56;100.00
79586;BME280;69054;50.866;4.636;2023-11-19T08:07:18;100673.72;;;10.62;100.00
79586;BME280;69054;50.866;4.636;2023-11-19T08:09:44;100691.44;;;10.73;100.00
79586;BME280;69054;50.866;4.636;2023-11-19T08:12:09;100684.34;;;10.79;100.00
79586;BME280;69054;50.866;4.636;2023-11-19T08:14:35;100695.34;;;10.86;100.00
79586;BME280;69054;50.866;4.636;2023-11-19T08:17:00;100689.91;;;10.92;100.00
79586;BME280;69054;50.866;4.636;2023-11-19T08:19:26;100683.19;;;10.95;100.00
79586;BME280;69054;50.866;4.636;2023-11-19T08:21:51;100693.34;;;11.01;100.00
79586;BME280;69054;50.866;4.636;2023-11-19T08:24:16;100692.53;;;11.07;100.00
79586;BME280;69054;50.866;4.636;2023-11-19T08:26:42;100695.34;;;11.21;100.00
79586;BME280;69054;50.866;4.636;2023-11-19T08:29:08;100682.53;;;11.28;100.00
79586;BME280;69054;50.866;4.636;2023-11-19T08:31:34;100676.63;;;11.31;100.00
79586;BME280;69054;50.866;4.636;2023-11-19T08:33:59;100680.84;;;11.27;100.00
79586;BME280;69054;50.866;4.636;2023-11-19T08:36:25;100678.31;;;11.25;100.00
79586;BME280;69054;50.866;4.636;2023-11-19T08:38:50;100669.03;;;11.26;100.00
79586;BME280;69054;50.866;4.636;2023-11-19T08:41:16;100672.66;;;11.27;100.00
79586;BME280;69054;50.866;4.636;2023-11-19T08:43:43;100672.88;;;11.32;100.00
79586;BME280;69054;50.866;4.636;2023-11-19T08:46:11;100683.41;;;11.35;100.00
79586;BME280;69054;50.866;4.636;2023-11-19T08:48:38;100678.34;;;11.32;100.00
79586;BME280;69054;50.866;4.636;2023-11-19T08:51:03;100685.31;;;11.41;100.00
79586;BME280;69054;50.866;4.636;2023-11-19T08:53:29;100697.34;;;11.47;100.00
79586;BME280;69054;50.866;4.636;2023-11-19T08:55:55;100697.16;;;11.55;100.00
79586;BME280;69054;50.866;4.636;2023-11-19T08:58:20;100685.44;;;11.61;100.00
79586;BME280;69054;50.866;4.636;2023-11-19T09:00:46;100697.41;;;11.60;100.00
79586;BME280;69054;50.866;4.636;2023-11-19T09:03:11;100707.81;;;11.36;100.00
79586;BME280;69054;50.866;4.636;2023-11-19T09:05:36;100702.03;;;11.11;100.00
79586;BME280;69054;50.866;4.636;2023-11-19T09:08:02;100700.22;;;10.90;100.00
79586;BME280;69054;50.866;4.636;2023-11-19T09:10:27;100702.84;;;10.77;100.00
79586;BME280;69054;50.866;4.636;2023-11-19T09:12:54;100694.56;;;10.70;100.00
79586;BME280;69054;50.866;4.636;2023-11-19T09:15:19;100693.38;;;10.79;100.00
79586;BME280;69054;50.866;4.636;2023-11-19T09:17:45;100693.88;;;10.90;100.00
79586;BME280;69054;50.866;4.636;2023-11-19T09:20:10;100704.41;;;10.93;100.00
79586;BME280;69054;50.866;4.636;2023-11-19T09:22:40;100696.28;;;10.99;100.00
79586;BME280;69054;50.866;4.636;2023-11-19T09:25:05;100694.81;;;11.04;100.00
79586;BME280;69054;50.866;4.636;2023-11-19T09:27:31;100690.00;;;11.06;100.00
79586;BME280;69054;50.866;4.636;2023-11-19T09:29:56;100668.19;;;11.19;100.00
79586;BME280;69054;50.866;4.636;2023-11-19T09:32:23;100678.34;;;11.32;100.00
79586;BME280;69054;50.866;4.636;2023-11-19T09:34:49;100691.75;;;11.68;99.51
79586;BME280;69054;50.866;4.636;2023-11-19T09:37:14;100701.81;;;12.23;96.60
79586;BME280;69054;50.866;4.636;2023-11-19T09:39:40;100695.06;;;12.79;94.00
79586;BME280;69054;50.866;4.636;2023-11-19T09:42:11;100689.53;;;13.06;92.70
79586;BME280;69054;50.866;4.636;2023-11-19T09:44:38;100689.13;;;12.95;92.64
79586;BME280;69054;50.866;4.636;2023-11-19T09:47:05;100683.72;;;12.69;94.34
79586;BME280;69054;50.866;4.636;2023-11-19T09:49:33;100678.00;;;12.57;96.65
79586;BME280;69054;50.866;4.636;2023-11-19T09:52:00;100681.47;;;13.24;92.78
79586;BME280;69054;50.866;4.636;2023-11-19T09:54:26;100680.38;;;13.45;91.23
79586;BME280;69054;50.866;4.636;2023-11-19T09:56:52;100683.13;;;13.45;91.22
79586;BME280;69054;50.866;4.636;2023-11-19T09:59:18;100688.34;;;13.60;89.80
79586;BME280;69054;50.866;4.636;2023-11-19T10:01:45;100687.94;;;13.57;90.88
79586;BME280;69054;50.866;4.636;2023-11-19T10:04:12;100690.28;;;13.92;88.99
79586;BME280;69054;50.866;4.636;2023-11-19T10:06:41;100692.53;;;14.08;88.31
79586;BME280;69054;50.866;4.636;2023-11-19T10:09:07;100694.38;;;13.76;89.01
79586;BME280;69054;50.866;4.636;2023-11-19T10:11:32;100698.16;;;13.81;90.43
79586;BME280;69054;50.866;4.636;2023-11-19T10:13:59;100686.31;;;14.19;87.77
79586;BME280;69054;50.866;4.636;2023-11-19T10:16:29;100695.81;;;14.49;85.78
79586;BME280;69054;50.866;4.636;2023-11-19T10:18:56;100676.13;;;14.20;86.26
79586;BME280;69054;50.866;4.636;2023-11-19T10:21:21;100677.88;;;14.46;86.10
79586;BME280;69054;50.866;4.636;2023-11-19T10:23:56;100676.94;;;14.27;85.31
79586;BME280;69054;50.866;4.636;2023-11-19T10:26:25;100690.53;;;14.47;85.32
79586;BME280;69054;50.866;4.636;2023-11-19T10:28:50;100681.91;;;14.12;86.90
79586;BME280;69054;50.866;4.636;2023-11-19T10:31:17;100694.22;;;13.64;89.48
79586;BME280;69054;50.866;4.636;2023-11-19T10:33:43;100696.22;;;13.30;91.41
79586;BME280;69054;50.866;4.636;2023-11-19T10:36:14;100692.44;;;13.24;91.57
79586;BME280;69054;50.866;4.636;2023-11-19T10:38:40;100678.44;;;13.53;90.77
79586;BME280;69054;50.866;4.636;2023-11-19T10:41:06;100683.41;;;14.40;86.53
79586;BME280;69054;50.866;4.636;2023-11-19T10:43:31;100682.59;;;15.08;84.21
79586;BME280;69054;50.866;4.636;2023-11-19T10:46:12;100690.28;;;14.81;83.30
79586;BME280;69054;50.866;4.636;2023-11-19T10:48:39;100661.09;;;13.97;85.61
79586;BME280;69054;50.866;4.636;2023-11-19T10:51:06;100670.38;;;13.58;87.42
79586;BME280;69054;50.866;4.636;2023-11-19T10:53:37;100663.69;;;13.47;89.70
79586;BME280;69054;50.866;4.636;2023-11-19T10:56:05;100679.34;;;13.33;89.84
79586;BME280;69054;50.866;4.636;2023-11-19T10:58:32;100670.97;;;13.08;91.32
79586;BME280;69054;50.866;4.636;2023-11-19T11:01:02;100664.25;;;12.90;93.02
79586;BME280;69054;50.866;4.636;2023-11-19T11:03:36;100676.09;;;12.77;93.58
79586;BME280;69054;50.866;4.636;2023-11-19T11:06:04;100654.59;;;12.61;95.59
79586;BME280;69054;50.866;4.636;2023-11-19T11:08:31;100662.50;;;13.16;95.29
79586;BME280;69054;50.866;4.636;2023-11-19T11:10:57;100664.78;;;13.32;91.89
79586;BME280;69054;50.866;4.636;2023-11-19T11:13:26;100657.09;;;12.89;92.90
79586;BME280;69054;50.866;4.636;2023-11-19T11:15:56;100640.84;;;12.88;92.17
79586;BME280;69054;50.866;4.636;2023-11-19T11:18:26;100661.63;;;13.81;87.79
79586;BME280;69054;50.866;4.636;2023-11-19T11:21:10;100663.28;;;14.14;84.92
79586;BME280;69054;50.866;4.636;2023-11-19T11:23:53;100644.69;;;13.52;87.78
79586;BME280;69054;50.866;4.636;2023-11-19T11:26:53;100635.88;;;13.30;89.05
79586;BME280;69054;50.866;4.636;2023-11-19T11:32:37;100623.53;;;13.01;91.29
79586;BME280;69054;50.866;4.636;2023-11-19T11:38:07;100635.78;;;12.85;92.81
79586;BME280;69054;50.866;4.636;2023-11-19T11:40:34;100645.31;;;12.69;94.50
79586;BME280;69054;50.866;4.636;2023-11-19T11:42:59;100627.09;;;13.01;91.90
79586;BME280;69054;50.866;4.636;2023-11-19T11:45:38;100622.16;;;14.07;87.80
79586;BME280;69054;50.866;4.636;2023-11-19T11:48:11;100624.81;;;15.08;82.64
79586;BME280;69054;50.866;4.636;2023-11-19T11:50:57;100622.44;;;15.60;80.25
79586;BME280;69054;50.866;4.636;2023-11-19T11:53:23;100619.00;;;15.65;79.61
79586;BME280;69054;50.866;4.636;2023-11-19T11:58:18;100611.16;;;16.11;77.08
79586;BME280;69054;50.866;4.636;2023-11-19T12:00:47;100607.84;;;15.90;76.36
79586;BME280;69054;50.866;4.636;2023-11-19T12:03:12;100601.91;;;15.75;76.89
79586;BME280;69054;50.866;4.636;2023-11-19T12:05:41;100604.19;;;16.08;76.25
79586;BME280;69054;50.866;4.636;2023-11-19T12:08:07;100610.44;;;16.16;74.73
79586;BME280;69054;50.866;4.636;2023-11-19T12:10:50;100617.03;;;16.14;75.46
79586;BME280;69054;50.866;4.636;2023-11-19T12:13:17;100618.25;;;16.42;73.61
79586;BME280;69054;50.866;4.636;2023-11-19T12:18:30;100608.78;;;15.05;77.39
79586;BME280;69054;50.866;4.636;2023-11-19T12:20:56;100600.75;;;15.52;75.92
79586;BME280;69054;50.866;4.636;2023-11-19T12:23:22;100611.53;;;15.54;75.67
79586;BME280;69054;50.866;4.636;2023-11-19T12:25:49;100616.81;;;15.06;78.11
79586;BME280;69054;50.866;4.636;2023-11-19T12:28:15;100604.19;;;14.05;82.23
79586;BME280;69054;50.866;4.636;2023-11-19T12:30:44;100600.16;;;13.43;84.73
79586;BME280;69054;50.866;4.636;2023-11-19T12:33:10;100596.22;;;13.19;87.01
79586;BME280;69054;50.866;4.636;2023-11-19T12:35:46;100608.09;;;13.06;87.93
79586;BME280;69054;50.866;4.636;2023-11-19T12:38:21;100615.38;;;12.67;93.02
79586;BME280;69054;50.866;4.636;2023-11-19T12:40:50;100600.69;;;12.28;96.41
79586;BME280;69054;50.866;4.636;2023-11-19T12:43:27;100600.03;;;12.19;96.02
79586;BME280;69054;50.866;4.636;2023-11-19T12:45:52;100626.81;;;12.17;98.09
79586;BME280;69054;50.866;4.636;2023-11-19T12:48:18;100597.94;;;12.15;96.19
79586;BME280;69054;50.866;4.636;2023-11-19T12:50:58;100606.34;;;12.13;96.92
79586;BME280;69054;50.866;4.636;2023-11-19T12:53:27;100609.28;;;12.18;97.45
79586;BME280;69054;50.866;4.636;2023-11-19T12:55:54;100597.28;;;12.39;95.86